sensor_id;sensor_type;location;lat;lon;timestamp;temperature;humidity
29731;DHT22;16639;51.488;0.152;2023-06-10T00:01:15;17.40;99.90
29731;DHT22;16639;51.488;0.152;2023-06-10T00:03:42;17.40;99.90
29731;DHT22;16639;51.488;0.152;2023-06-10T00:06:10;17.40;99.90
29731;DHT22;16639;51.488;0.152;2023-06-10T00:08:37;17.50;99.90
29731;DHT22;16639;51.488;0.152;2023-06-10T00:11:06;17.30;99.90
29731;DHT22;16639;51.488;0.152;2023-06-10T00:13:32;17.30;99.90
29731;DHT22;16639;51.488;0.152;2023-06-10T00:15:59;17.30;99.90
29731;DHT22;16639;51.488;0.152;2023-06-10T00:18:26;17.30;99.90
29731;DHT22;16639;51.488;0.152;2023-06-10T00:20:53;17.30;99.90
29731;DHT22;16639;51.488;0.152;2023-06-10T00:23:21;17.30;99.90
29731;DHT22;16639;51.488;0.152;2023-06-10T00:25:49;17.20;99.90
29731;DHT22;16639;51.488;0.152;2023-06-10T00:28:16;17.20;99.90
29731;DHT22;16639;51.488;0.152;2023-06-10T00:30:43;17.20;99.90
29731;DHT22;16639;51.488;0.152;2023-06-10T00:33:09;17.50;99.90
29731;DHT22;16639;51.488;0.152;2023-06-10T00:35:36;17.10;99.90
29731;DHT22;16639;51.488;0.152;2023-06-10T00:38:03;16.60;99.90
29731;DHT22;16639;51.488;0.152;2023-06-10T00:40:30;17.00;99.90
29731;DHT22;16639;51.488;0.152;2023-06-10T00:42:57;17.00;99.90
29731;DHT22;16639;51.488;0.152;2023-06-10T00:45:24;17.00;99.90
29731;DHT22;16639;51.488;0.152;2023-06-10T00:47:50;17.00;99.90
29731;DHT22;16639;51.488;0.152;2023-06-10T00:50:17;17.00;99.90
29731;DHT22;16639;51.488;0.152;2023-06-10T00:52:44;16.90;99.90
29731;DHT22;16639;51.488;0.152;2023-06-10T00:55:12;16.90;99.90
29731;DHT22;16639;51.488;0.152;2023-06-10T00:57:39;16.80;99.90
29731;DHT22;16639;51.488;0.152;2023-06-10T01:00:07;16.90;99.90
29731;DHT22;16639;51.488;0.152;2023-06-10T01:02:35;16.70;99.90
29731;DHT22;16639;51.488;0.152;2023-06-10T01:05:02;16.70;99.90
29731;DHT22;16639;51.488;0.152;2023-06-10T01:07:55;16.60;99.90
29731;DHT22;16639;51.488;0.152;2023-06-10T01:10:33;16.60;99.90
29731;DHT22;16639;51.488;0.152;2023-06-10T01:13:11;16.50;99.90
29731;DHT22;16639;51.488;0.152;2023-06-10T01:16:49;16.50;99.90
29731;DHT22;16639;51.488;0.152;2023-06-10T01:19:16;16.50;99.90
29731;DHT22;16639;51.488;0.152;2023-06-10T01:21:44;16.40;99.90
29731;DHT22;16639;51.488;0.152;2023-06-10T01:24:15;16.40;99.90
29731;DHT22;16639;51.488;0.152;2023-06-10T01:26:45;16.40;99.90
29731;DHT22;16639;51.488;0.152;2023-06-10T01:29:41;16.40;99.90
29731;DHT22;16639;51.488;0.152;2023-06-10T01:32:22;16.30;99.90
29731;DHT22;16639;51.488;0.152;2023-06-10T01:34:52;16.40;99.90
29731;DHT22;16639;51.488;0.152;2023-06-10T01:37:22;16.40;99.90
29731;DHT22;16639;51.488;0.152;2023-06-10T01:39:51;16.30;99.90
29731;DHT22;16639;51.488;0.152;2023-06-10T01:42:18;16.30;99.90
29731;DHT22;16639;51.488;0.152;2023-06-10T01:44:45;16.20;99.90
29731;DHT22;16639;51.488;0.152;2023-06-10T01:47:12;16.20;99.90
29731;DHT22;16639;51.488;0.152;2023-06-10T01:49:39;16.20;99.90
29731;DHT22;16639;51.488;0.152;2023-06-10T01:52:06;16.10;99.90
29731;DHT22;16639;51.488;0.152;2023-06-10T01:54:34;16.20;99.90
29731;DHT22;16639;51.488;0.152;2023-06-10T01:57:03;16.10;99.90
29731;DHT22;16639;51.488;0.152;2023-06-10T01:59:30;16.10;99.90
29731;DHT22;16639;51.488;0.152;2023-06-10T02:01:57;16.10;99.90
29731;DHT22;16639;51.488;0.152;2023-06-10T02:04:24;16.10;99.90
29731;DHT22;16639;51.488;0.152;2023-06-10T02:06:51;16.10;99.90
29731;DHT22;16639;51.488;0.152;2023-06-10T02:09:18;16.10;99.90
29731;DHT22;16639;51.488;0.152;2023-06-10T02:11:45;16.10;99.90
29731;DHT22;16639;51.488;0.152;2023-06-10T02:14:12;16.10;99.90
29731;DHT22;16639;51.488;0.152;2023-06-10T02:16:39;16.10;99.90
29731;DHT22;16639;51.488;0.152;2023-06-10T02:19:06;16.00;99.90
29731;DHT22;16639;51.488;0.152;2023-06-10T02:21:33;16.00;99.90
29731;DHT22;16639;51.488;0.152;2023-06-10T02:24:00;16.00;99.90
29731;DHT22;16639;51.488;0.152;2023-06-10T02:26:27;16.00;99.90
29731;DHT22;16639;51.488;0.152;2023-06-10T02:28:54;16.00;99.90
29731;DHT22;16639;51.488;0.152;2023-06-10T02:31:21;16.00;99.90
29731;DHT22;16639;51.488;0.152;2023-06-10T02:33:48;16.00;99.90
29731;DHT22;16639;51.488;0.152;2023-06-10T02:36:15;15.90;99.90
29731;DHT22;16639;51.488;0.152;2023-06-10T02:38:42;16.00;99.90
29731;DHT22;16639;51.488;0.152;2023-06-10T02:41:08;16.00;99.90
29731;DHT22;16639;51.488;0.152;2023-06-10T02:43:35;15.90;99.90
29731;DHT22;16639;51.488;0.152;2023-06-10T02:46:02;16.00;99.90
29731;DHT22;16639;51.488;0.152;2023-06-10T02:48:29;16.00;99.90
29731;DHT22;16639;51.488;0.152;2023-06-10T02:50:56;15.90;99.90
29731;DHT22;16639;51.488;0.152;2023-06-10T02:53:23;15.90;99.90
29731;DHT22;16639;51.488;0.152;2023-06-10T02:55:50;16.20;99.90
29731;DHT22;16639;51.488;0.152;2023-06-10T02:58:16;15.90;99.90
29731;DHT22;16639;51.488;0.152;2023-06-10T03:00:43;15.80;99.90
29731;DHT22;16639;51.488;0.152;2023-06-10T03:03:10;15.80;99.90
29731;DHT22;16639;51.488;0.152;2023-06-10T03:05:37;15.50;99.90
29731;DHT22;16639;51.488;0.152;2023-06-10T03:08:04;15.70;99.90
29731;DHT22;16639;51.488;0.152;2023-06-10T03:10:31;15.70;99.90
29731;DHT22;16639;51.488;0.152;2023-06-10T03:12:59;15.70;99.90
29731;DHT22;16639;51.488;0.152;2023-06-10T03:15:26;15.70;99.90
29731;DHT22;16639;51.488;0.152;2023-06-10T03:17:55;15.70;99.90
29731;DHT22;16639;51.488;0.152;2023-06-10T03:20:22;15.70;99.90
29731;DHT22;16639;51.488;0.152;2023-06-10T03:22:49;15.60;99.90
29731;DHT22;16639;51.488;0.152;2023-06-10T03:25:16;15.70;99.90
29731;DHT22;16639;51.488;0.152;2023-06-10T03:27:43;15.70;99.90
29731;DHT22;16639;51.488;0.152;2023-06-10T03:30:11;15.70;99.90
29731;DHT22;16639;51.488;0.152;2023-06-10T03:32:39;15.70;99.90
29731;DHT22;16639;51.488;0.152;2023-06-10T03:35:08;15.70;99.90
29731;DHT22;16639;51.488;0.152;2023-06-10T03:37:35;15.80;99.90
29731;DHT22;16639;51.488;0.152;2023-06-10T03:40:02;15.70;99.90
29731;DHT22;16639;51.488;0.152;2023-06-10T03:42:29;16.00;99.90
29731;DHT22;16639;51.488;0.152;2023-06-10T03:44:56;15.70;99.90
29731;DHT22;16639;51.488;0.152;2023-06-10T03:47:23;15.70;99.90
29731;DHT22;16639;51.488;0.152;2023-06-10T03:49:50;15.70;99.90
29731;DHT22;16639;51.488;0.152;2023-06-10T03:52:17;15.60;99.90
29731;DHT22;16639;51.488;0.152;2023-06-10T03:54:44;15.70;99.90
29731;DHT22;16639;51.488;0.152;2023-06-10T03:57:11;15.60;99.90
29731;DHT22;16639;51.488;0.152;2023-06-10T03:59:38;15.60;99.90
29731;DHT22;16639;51.488;0.152;2023-06-10T04:02:05;15.60;99.90
29731;DHT22;16639;51.488;0.152;2023-06-10T04:04:33;15.60;99.90
29731;DHT22;16639;51.488;0.152;2023-06-10T04:07:00;15.60;99.90
29731;DHT22;16639;51.488;0.152;2023-06-10T04:09:27;15.80;99.90
29731;DHT22;16639;51.488;0.152;2023-06-10T04:11:53;15.60;99.90
29731;DHT22;16639;51.488;0.152;2023-06-10T04:14:20;15.60;99.90
29731;DHT22;16639;51.488;0.152;2023-06-10T04:16:47;15.50;99.90
29731;DHT22;16639;51.488;0.152;2023-06-10T04:19:13;15.50;99.90
29731;DHT22;16639;51.488;0.152;2023-06-10T04:21:40;15.50;99.90
29731;DHT22;16639;51.488;0.152;2023-06-10T04:24:07;15.50;99.90
29731;DHT22;16639;51.488;0.152;2023-06-10T04:26:35;15.50;99.90
29731;DHT22;16639;51.488;0.152;2023-06-10T04:29:02;15.50;99.90
29731;DHT22;16639;51.488;0.152;2023-06-10T04:31:29;15.80;99.90
29731;DHT22;16639;51.488;0.152;2023-06-10T04:33:56;15.50;99.90
29731;DHT22;16639;51.488;0.152;2023-06-10T04:36:22;15.50;99.90
29731;DHT22;16639;51.488;0.152;2023-06-10T04:38:50;15.50;99.90
29731;DHT22;16639;51.488;0.152;2023-06-10T04:41:18;15.50;99.90
29731;DHT22;16639;51.488;0.152;2023-06-10T04:43:46;15.50;99.90
29731;DHT22;16639;51.488;0.152;2023-06-10T04:46:12;15.50;99.90
29731;DHT22;16639;51.488;0.152;2023-06-10T04:48:40;15.50;99.90
29731;DHT22;16639;51.488;0.152;2023-06-10T04:51:08;15.40;99.90
29731;DHT22;16639;51.488;0.152;2023-06-10T04:53:35;15.50;99.90
29731;DHT22;16639;51.488;0.152;2023-06-10T04:56:03;15.50;99.90
29731;DHT22;16639;51.488;0.152;2023-06-10T04:58:30;15.50;99.90
29731;DHT22;16639;51.488;0.152;2023-06-10T05:01:00;15.50;99.90
29731;DHT22;16639;51.488;0.152;2023-06-10T05:03:34;15.50;99.90
29731;DHT22;16639;51.488;0.152;2023-06-10T05:06:01;15.60;99.90
29731;DHT22;16639;51.488;0.152;2023-06-10T05:08:27;15.60;99.90
29731;DHT22;16639;51.488;0.152;2023-06-10T05:10:54;15.60;99.90
29731;DHT22;16639;51.488;0.152;2023-06-10T05:13:21;15.70;99.90
29731;DHT22;16639;51.488;0.152;2023-06-10T05:15:47;15.60;99.90
29731;DHT22;16639;51.488;0.152;2023-06-10T05:18:14;15.70;99.90
29731;DHT22;16639;51.488;0.152;2023-06-10T05:20:41;15.70;99.90
29731;DHT22;16639;51.488;0.152;2023-06-10T05:23:08;15.70;99.90
29731;DHT22;16639;51.488;0.152;2023-06-10T05:25:35;15.80;99.90
29731;DHT22;16639;51.488;0.152;2023-06-10T05:28:02;15.80;99.90
29731;DHT22;16639;51.488;0.152;2023-06-10T05:30:29;15.80;99.90
29731;DHT22;16639;51.488;0.152;2023-06-10T05:32:56;15.80;99.90
29731;DHT22;16639;51.488;0.152;2023-06-10T05:35:22;15.90;99.90
29731;DHT22;16639;51.488;0.152;2023-06-10T05:37:50;15.80;99.90
29731;DHT22;16639;51.488;0.152;2023-06-10T05:40:16;15.90;99.90
29731;DHT22;16639;51.488;0.152;2023-06-10T05:42:43;16.00;99.90
29731;DHT22;16639;51.488;0.152;2023-06-10T05:45:10;16.00;99.90
29731;DHT22;16639;51.488;0.152;2023-06-10T05:47:37;16.00;99.90
29731;DHT22;16639;51.488;0.152;2023-06-10T05:50:04;16.10;99.90
29731;DHT22;16639;51.488;0.152;2023-06-10T05:52:35;16.10;99.90
29731;DHT22;16639;51.488;0.152;2023-06-10T05:55:03;16.10;99.90
29731;DHT22;16639;51.488;0.152;2023-06-10T05:57:29;16.10;99.90
29731;DHT22;16639;51.488;0.152;2023-06-10T05:59:56;16.20;99.90
29731;DHT22;16639;51.488;0.152;2023-06-10T06:02:30;16.20;99.90
29731;DHT22;16639;51.488;0.152;2023-06-10T06:05:27;16.30;99.90
29731;DHT22;16639;51.488;0.152;2023-06-10T06:07:54;16.30;99.90
29731;DHT22;16639;51.488;0.152;2023-06-10T06:10:20;16.30;99.90
29731;DHT22;16639;51.488;0.152;2023-06-10T06:12:47;16.40;99.90
29731;DHT22;16639;51.488;0.152;2023-06-10T06:15:14;16.40;99.90
29731;DHT22;16639;51.488;0.152;2023-06-10T06:17:41;16.30;99.90
29731;DHT22;16639;51.488;0.152;2023-06-10T06:20:08;16.40;99.90
29731;DHT22;16639;51.488;0.152;2023-06-10T06:22:34;16.40;99.90
29731;DHT22;16639;51.488;0.152;2023-06-10T06:25:01;16.40;99.90
29731;DHT22;16639;51.488;0.152;2023-06-10T06:27:29;16.50;99.90
29731;DHT22;16639;51.488;0.152;2023-06-10T06:29:56;16.60;99.90
29731;DHT22;16639;51.488;0.152;2023-06-10T06:32:24;16.60;99.90
29731;DHT22;16639;51.488;0.152;2023-06-10T06:34:54;16.60;99.90
29731;DHT22;16639;51.488;0.152;2023-06-10T06:37:24;16.60;99.90
29731;DHT22;16639;51.488;0.152;2023-06-10T06:39:52;16.70;99.90
29731;DHT22;16639;51.488;0.152;2023-06-10T06:42:20;16.70;99.90
29731;DHT22;16639;51.488;0.152;2023-06-10T06:44:47;16.80;99.90
29731;DHT22;16639;51.488;0.152;2023-06-10T06:47:14;16.80;99.90
29731;DHT22;16639;51.488;0.152;2023-06-10T06:49:40;16.90;99.90
29731;DHT22;16639;51.488;0.152;2023-06-10T06:52:07;16.90;99.90
29731;DHT22;16639;51.488;0.152;2023-06-10T06:54:34;17.00;99.90
29731;DHT22;16639;51.488;0.152;2023-06-10T06:57:01;17.10;99.90
29731;DHT22;16639;51.488;0.152;2023-06-10T06:59:28;17.20;99.90
29731;DHT22;16639;51.488;0.152;2023-06-10T07:01:55;17.20;99.90
29731;DHT22;16639;51.488;0.152;2023-06-10T07:04:22;17.30;99.90
29731;DHT22;16639;51.488;0.152;2023-06-10T07:06:48;17.40;99.90
29731;DHT22;16639;51.488;0.152;2023-06-10T07:09:15;17.40;99.90
29731;DHT22;16639;51.488;0.152;2023-06-10T07:11:42;17.60;99.90
29731;DHT22;16639;51.488;0.152;2023-06-10T07:14:09;17.60;99.90
29731;DHT22;16639;51.488;0.152;2023-06-10T07:16:36;16.40;99.90
29731;DHT22;16639;51.488;0.152;2023-06-10T07:19:03;17.70;99.90
29731;DHT22;16639;51.488;0.152;2023-06-10T07:21:33;17.70;99.90
29731;DHT22;16639;51.488;0.152;2023-06-10T07:24:00;17.80;99.90
29731;DHT22;16639;51.488;0.152;2023-06-10T07:26:27;17.80;99.90
29731;DHT22;16639;51.488;0.152;2023-06-10T07:28:53;17.90;99.90
29731;DHT22;16639;51.488;0.152;2023-06-10T07:31:20;17.90;99.90
29731;DHT22;16639;51.488;0.152;2023-06-10T07:33:48;17.90;99.90
29731;DHT22;16639;51.488;0.152;2023-06-10T07:36:15;17.90;99.90
29731;DHT22;16639;51.488;0.152;2023-06-10T07:38:42;17.90;99.90
29731;DHT22;16639;51.488;0.152;2023-06-10T07:41:09;18.00;99.90
29731;DHT22;16639;51.488;0.152;2023-06-10T07:43:37;18.00;99.90
29731;DHT22;16639;51.488;0.152;2023-06-10T07:46:03;18.00;99.90
29731;DHT22;16639;51.488;0.152;2023-06-10T07:48:32;18.00;99.90
29731;DHT22;16639;51.488;0.152;2023-06-10T07:50:59;18.00;99.90
29731;DHT22;16639;51.488;0.152;2023-06-10T07:53:25;18.10;99.90
29731;DHT22;16639;51.488;0.152;2023-06-10T07:55:52;18.10;99.90
29731;DHT22;16639;51.488;0.152;2023-06-10T07:58:19;18.20;99.90
29731;DHT22;16639;51.488;0.152;2023-06-10T08:00:47;18.20;99.90
29731;DHT22;16639;51.488;0.152;2023-06-10T08:03:14;18.20;99.90
29731;DHT22;16639;51.488;0.152;2023-06-10T08:05:41;18.20;99.90
29731;DHT22;16639;51.488;0.152;2023-06-10T08:08:07;18.30;99.90
29731;DHT22;16639;51.488;0.152;2023-06-10T08:10:34;18.40;99.90
29731;DHT22;16639;51.488;0.152;2023-06-10T08:13:01;18.40;99.90
29731;DHT22;16639;51.488;0.152;2023-06-10T08:15:28;18.40;99.90
29731;DHT22;16639;51.488;0.152;2023-06-10T08:17:55;18.40;99.90
29731;DHT22;16639;51.488;0.152;2023-06-10T08:20:23;18.50;99.90
29731;DHT22;16639;51.488;0.152;2023-06-10T08:22:49;18.50;99.90
29731;DHT22;16639;51.488;0.152;2023-06-10T08:25:16;18.60;99.90
29731;DHT22;16639;51.488;0.152;2023-06-10T08:27:43;18.80;99.90
29731;DHT22;16639;51.488;0.152;2023-06-10T08:30:11;18.70;99.90
29731;DHT22;16639;51.488;0.152;2023-06-10T08:32:39;18.70;99.90
29731;DHT22;16639;51.488;0.152;2023-06-10T08:35:06;19.00;99.90
29731;DHT22;16639;51.488;0.152;2023-06-10T08:37:34;18.80;99.90
29731;DHT22;16639;51.488;0.152;2023-06-10T08:40:00;18.70;99.90
29731;DHT22;16639;51.488;0.152;2023-06-10T08:42:39;18.90;99.90
29731;DHT22;16639;51.488;0.152;2023-06-10T08:45:16;19.00;99.90
29731;DHT22;16639;51.488;0.152;2023-06-10T08:47:45;19.00;99.90
29731;DHT22;16639;51.488;0.152;2023-06-10T08:50:13;19.00;99.90
29731;DHT22;16639;51.488;0.152;2023-06-10T08:52:44;19.10;99.90
29731;DHT22;16639;51.488;0.152;2023-06-10T08:55:15;19.10;99.90
29731;DHT22;16639;51.488;0.152;2023-06-10T08:57:55;19.20;99.90
29731;DHT22;16639;51.488;0.152;2023-06-10T09:00:22;19.30;99.90
29731;DHT22;16639;51.488;0.152;2023-06-10T09:02:49;19.30;99.90
29731;DHT22;16639;51.488;0.152;2023-06-10T09:05:17;19.30;99.90
29731;DHT22;16639;51.488;0.152;2023-06-10T09:07:45;19.40;99.90
29731;DHT22;16639;51.488;0.152;2023-06-10T09:10:12;19.40;99.90
29731;DHT22;16639;51.488;0.152;2023-06-10T09:12:39;19.50;99.90
29731;DHT22;16639;51.488;0.152;2023-06-10T09:15:07;19.50;99.90
29731;DHT22;16639;51.488;0.152;2023-06-10T09:17:35;19.90;99.90
29731;DHT22;16639;51.488;0.152;2023-06-10T09:20:10;19.60;99.90
29731;DHT22;16639;51.488;0.152;2023-06-10T09:22:37;19.60;99.90
29731;DHT22;16639;51.488;0.152;2023-06-10T09:25:11;19.70;99.90
29731;DHT22;16639;51.488;0.152;2023-06-10T09:27:51;19.80;99.90
29731;DHT22;16639;51.488;0.152;2023-06-10T09:30:32;19.80;99.90
29731;DHT22;16639;51.488;0.152;2023-06-10T09:33:09;19.70;99.90
29731;DHT22;16639;51.488;0.152;2023-06-10T09:35:36;19.90;99.90
29731;DHT22;16639;51.488;0.152;2023-06-10T09:38:10;19.90;99.90
29731;DHT22;16639;51.488;0.152;2023-06-10T09:40:52;20.00;99.90
29731;DHT22;16639;51.488;0.152;2023-06-10T09:43:20;20.00;99.90
29731;DHT22;16639;51.488;0.152;2023-06-10T09:45:48;20.10;99.90
29731;DHT22;16639;51.488;0.152;2023-06-10T09:48:15;20.10;99.90
29731;DHT22;16639;51.488;0.152;2023-06-10T09:50:43;20.10;99.90
29731;DHT22;16639;51.488;0.152;2023-06-10T09:53:11;20.20;99.90
29731;DHT22;16639;51.488;0.152;2023-06-10T09:55:38;20.20;99.90
29731;DHT22;16639;51.488;0.152;2023-06-10T09:58:05;20.20;99.90
29731;DHT22;16639;51.488;0.152;2023-06-10T10:00:33;20.30;99.90
29731;DHT22;16639;51.488;0.152;2023-06-10T10:03:00;20.30;99.90
29731;DHT22;16639;51.488;0.152;2023-06-10T10:05:28;20.30;99.90
29731;DHT22;16639;51.488;0.152;2023-06-10T10:07:56;20.40;99.90
29731;DHT22;16639;51.488;0.152;2023-06-10T10:10:23;20.40;99.90
29731;DHT22;16639;51.488;0.152;2023-06-10T10:12:56;20.50;99.90
29731;DHT22;16639;51.488;0.152;2023-06-10T10:15:29;20.50;99.90
29731;DHT22;16639;51.488;0.152;2023-06-10T10:18:07;20.50;99.90
29731;DHT22;16639;51.488;0.152;2023-06-10T10:20:50;20.70;99.90
29731;DHT22;16639;51.488;0.152;2023-06-10T10:23:24;20.70;99.90
29731;DHT22;16639;51.488;0.152;2023-06-10T10:25:53;20.70;99.90
29731;DHT22;16639;51.488;0.152;2023-06-10T10:28:24;20.80;99.90
29731;DHT22;16639;51.488;0.152;2023-06-10T10:31:12;20.80;99.90
29731;DHT22;16639;51.488;0.152;2023-06-10T10:33:48;20.90;99.90
29731;DHT22;16639;51.488;0.152;2023-06-10T10:36:18;20.90;99.90
29731;DHT22;16639;51.488;0.152;2023-06-10T10:38:47;20.90;99.90
29731;DHT22;16639;51.488;0.152;2023-06-10T10:41:20;21.00;99.90
29731;DHT22;16639;51.488;0.152;2023-06-10T10:43:48;21.10;99.90
29731;DHT22;16639;51.488;0.152;2023-06-10T10:46:18;21.10;99.90
29731;DHT22;16639;51.488;0.152;2023-06-10T10:48:45;21.20;99.90
29731;DHT22;16639;51.488;0.152;2023-06-10T10:51:15;21.40;99.90
29731;DHT22;16639;51.488;0.152;2023-06-10T10:53:42;21.20;99.90
29731;DHT22;16639;51.488;0.152;2023-06-10T10:56:15;21.30;99.90
29731;DHT22;16639;51.488;0.152;2023-06-10T10:59:04;21.30;99.90
29731;DHT22;16639;51.488;0.152;2023-06-10T11:01:42;21.40;99.90
29731;DHT22;16639;51.488;0.152;2023-06-10T11:04:12;21.80;99.90
29731;DHT22;16639;51.488;0.152;2023-06-10T11:06:39;21.50;99.90
29731;DHT22;16639;51.488;0.152;2023-06-10T11:09:28;21.50;99.90
29731;DHT22;16639;51.488;0.152;2023-06-10T11:11:58;21.60;99.90
29731;DHT22;16639;51.488;0.152;2023-06-10T11:14:29;21.60;99.90
29731;DHT22;16639;51.488;0.152;2023-06-10T11:16:57;21.60;99.90
29731;DHT22;16639;51.488;0.152;2023-06-10T11:19:37;21.70;99.90
29731;DHT22;16639;51.488;0.152;2023-06-10T11:22:19;21.70;99.90
29731;DHT22;16639;51.488;0.152;2023-06-10T11:24:50;21.80;99.90
29731;DHT22;16639;51.488;0.152;2023-06-10T11:27:22;21.90;99.90
29731;DHT22;16639;51.488;0.152;2023-06-10T11:32:35;21.90;99.90
29731;DHT22;16639;51.488;0.152;2023-06-10T11:35:05;21.90;99.90
29731;DHT22;16639;51.488;0.152;2023-06-10T11:37:34;22.00;99.90
29731;DHT22;16639;51.488;0.152;2023-06-10T11:40:02;22.00;99.90
29731;DHT22;16639;51.488;0.152;2023-06-10T11:42:29;22.10;99.90
29731;DHT22;16639;51.488;0.152;2023-06-10T11:44:56;22.10;99.90
29731;DHT22;16639;51.488;0.152;2023-06-10T11:47:23;22.20;99.90
29731;DHT22;16639;51.488;0.152;2023-06-10T11:49:56;22.20;99.90
29731;DHT22;16639;51.488;0.152;2023-06-10T11:52:28;22.30;99.90
29731;DHT22;16639;51.488;0.152;2023-06-10T11:54:55;22.30;99.90
29731;DHT22;16639;51.488;0.152;2023-06-10T11:57:22;22.30;99.90
29731;DHT22;16639;51.488;0.152;2023-06-10T11:59:49;22.40;99.90
29731;DHT22;16639;51.488;0.152;2023-06-10T12:02:17;22.40;99.90
29731;DHT22;16639;51.488;0.152;2023-06-10T12:04:43;22.40;99.90
29731;DHT22;16639;51.488;0.152;2023-06-10T12:07:17;22.50;99.90
29731;DHT22;16639;51.488;0.152;2023-06-10T12:09:45;22.50;99.90
29731;DHT22;16639;51.488;0.152;2023-06-10T12:12:12;22.60;99.90
29731;DHT22;16639;51.488;0.152;2023-06-10T12:14:52;22.50;99.90
29731;DHT22;16639;51.488;0.152;2023-06-10T12:22:39;22.80;99.90
29731;DHT22;16639;51.488;0.152;2023-06-10T12:25:07;22.80;99.90
29731;DHT22;16639;51.488;0.152;2023-06-10T12:27:36;22.90;99.90
29731;DHT22;16639;51.488;0.152;2023-06-10T12:30:04;22.80;99.90
29731;DHT22;16639;51.488;0.152;2023-06-10T12:32:42;22.90;99.90
29731;DHT22;16639;51.488;0.152;2023-06-10T12:35:12;22.90;99.90
29731;DHT22;16639;51.488;0.152;2023-06-10T12:37:40;23.00;99.90
29731;DHT22;16639;51.488;0.152;2023-06-10T12:40:10;23.10;99.90
29731;DHT22;16639;51.488;0.152;2023-06-10T12:42:38;23.10;99.90
29731;DHT22;16639;51.488;0.152;2023-06-10T12:45:06;23.20;99.90
29731;DHT22;16639;51.488;0.152;2023-06-10T12:47:37;23.20;99.90
29731;DHT22;16639;51.488;0.152;2023-06-10T12:50:08;23.30;99.90
29731;DHT22;16639;51.488;0.152;2023-06-10T12:52:35;23.30;99.90
29731;DHT22;16639;51.488;0.152;2023-06-10T12:55:02;23.30;99.90
29731;DHT22;16639;51.488;0.152;2023-06-10T12:57:30;23.30;99.90
29731;DHT22;16639;51.488;0.152;2023-06-10T12:59:57;23.30;99.90
29731;DHT22;16639;51.488;0.152;2023-06-10T13:02:30;23.40;99.90
29731;DHT22;16639;51.488;0.152;2023-06-10T13:04:56;23.40;99.90
29731;DHT22;16639;51.488;0.152;2023-06-10T13:07:23;23.50;99.90
29731;DHT22;16639;51.488;0.152;2023-06-10T13:09:50;23.50;99.90
29731;DHT22;16639;51.488;0.152;2023-06-10T13:12:17;23.60;99.90
29731;DHT22;16639;51.488;0.152;2023-06-10T13:14:47;23.60;99.90
29731;DHT22;16639;51.488;0.152;2023-06-10T13:17:13;23.60;99.90
29731;DHT22;16639;51.488;0.152;2023-06-10T13:19:40;23.60;99.90
29731;DHT22;16639;51.488;0.152;2023-06-10T13:22:07;24.00;99.90
29731;DHT22;16639;51.488;0.152;2023-06-10T13:24:34;23.70;99.90
29731;DHT22;16639;51.488;0.152;2023-06-10T13:27:00;23.70;99.90
29731;DHT22;16639;51.488;0.152;2023-06-10T13:29:28;23.70;99.90
29731;DHT22;16639;51.488;0.152;2023-06-10T13:31:55;23.70;99.90
29731;DHT22;16639;51.488;0.152;2023-06-10T13:34:22;23.80;99.90
29731;DHT22;16639;51.488;0.152;2023-06-10T13:36:49;23.80;99.90
29731;DHT22;16639;51.488;0.152;2023-06-10T13:39:15;23.80;99.90
29731;DHT22;16639;51.488;0.152;2023-06-10T13:41:42;23.90;99.90
29731;DHT22;16639;51.488;0.152;2023-06-10T13:44:08;24.00;99.90
29731;DHT22;16639;51.488;0.152;2023-06-10T13:46:38;24.00;99.90
29731;DHT22;16639;51.488;0.152;2023-06-10T13:49:05;24.00;99.90
29731;DHT22;16639;51.488;0.152;2023-06-10T13:51:32;24.10;99.90
29731;DHT22;16639;51.488;0.152;2023-06-10T13:53:59;24.10;99.90
29731;DHT22;16639;51.488;0.152;2023-06-10T13:56:26;24.10;99.90
29731;DHT22;16639;51.488;0.152;2023-06-10T13:58:54;24.10;99.90
29731;DHT22;16639;51.488;0.152;2023-06-10T14:01:21;24.10;99.90
29731;DHT22;16639;51.488;0.152;2023-06-10T14:03:47;24.10;99.90
29731;DHT22;16639;51.488;0.152;2023-06-10T14:06:15;24.10;99.90
29731;DHT22;16639;51.488;0.152;2023-06-10T14:08:45;24.10;99.90
29731;DHT22;16639;51.488;0.152;2023-06-10T14:11:12;24.20;99.90
29731;DHT22;16639;51.488;0.152;2023-06-10T14:13:38;24.20;99.90
29731;DHT22;16639;51.488;0.152;2023-06-10T14:16:05;24.20;99.90
29731;DHT22;16639;51.488;0.152;2023-06-10T14:18:32;24.20;99.90
29731;DHT22;16639;51.488;0.152;2023-06-10T14:20:58;24.20;99.90
29731;DHT22;16639;51.488;0.152;2023-06-10T14:23:25;24.20;99.90
29731;DHT22;16639;51.488;0.152;2023-06-10T14:25:53;24.10;99.90
29731;DHT22;16639;51.488;0.152;2023-06-10T14:28:19;24.20;99.90
29731;DHT22;16639;51.488;0.152;2023-06-10T14:30:46;24.20;99.90
29731;DHT22;16639;51.488;0.152;2023-06-10T14:33:13;24.20;99.90
29731;DHT22;16639;51.488;0.152;2023-06-10T14:35:39;24.20;99.90
29731;DHT22;16639;51.488;0.152;2023-06-10T14:38:06;24.20;99.90
29731;DHT22;16639;51.488;0.152;2023-06-10T14:40:34;24.20;99.90
29731;DHT22;16639;51.488;0.152;2023-06-10T14:43:01;24.20;99.90
29731;DHT22;16639;51.488;0.152;2023-06-10T14:45:30;23.90;99.90
29731;DHT22;16639;51.488;0.152;2023-06-10T14:48:00;24.30;99.90
29731;DHT22;16639;51.488;0.152;2023-06-10T14:50:27;24.30;99.90
29731;DHT22;16639;51.488;0.152;2023-06-10T14:52:53;24.30;99.90
29731;DHT22;16639;51.488;0.152;2023-06-10T14:55:20;24.30;99.90
29731;DHT22;16639;51.488;0.152;2023-06-10T14:57:49;24.40;99.90
29731;DHT22;16639;51.488;0.152;2023-06-10T15:00:16;24.40;99.90
29731;DHT22;16639;51.488;0.152;2023-06-10T15:02:46;24.40;99.90
29731;DHT22;16639;51.488;0.152;2023-06-10T15:05:17;24.40;99.90
29731;DHT22;16639;51.488;0.152;2023-06-10T15:07:46;24.40;99.90
29731;DHT22;16639;51.488;0.152;2023-06-10T15:10:12;24.40;99.90
29731;DHT22;16639;51.488;0.152;2023-06-10T15:12:39;24.80;99.90
29731;DHT22;16639;51.488;0.152;2023-06-10T15:15:06;24.50;99.90
29731;DHT22;16639;51.488;0.152;2023-06-10T15:17:34;24.50;99.90
29731;DHT22;16639;51.488;0.152;2023-06-10T15:20:01;24.50;99.90
29731;DHT22;16639;51.488;0.152;2023-06-10T15:22:28;24.50;99.90
29731;DHT22;16639;51.488;0.152;2023-06-10T15:24:55;24.60;99.90
29731;DHT22;16639;51.488;0.152;2023-06-10T15:27:22;24.60;99.90
29731;DHT22;16639;51.488;0.152;2023-06-10T15:29:48;24.60;99.90
29731;DHT22;16639;51.488;0.152;2023-06-10T15:32:15;24.70;99.90
29731;DHT22;16639;51.488;0.152;2023-06-10T15:34:45;24.70;99.90
29731;DHT22;16639;51.488;0.152;2023-06-10T15:37:14;24.80;99.90
29731;DHT22;16639;51.488;0.152;2023-06-10T15:39:41;24.70;99.90
29731;DHT22;16639;51.488;0.152;2023-06-10T15:42:08;24.70;99.90
29731;DHT22;16639;51.488;0.152;2023-06-10T15:44:35;24.70;99.90
29731;DHT22;16639;51.488;0.152;2023-06-10T15:47:01;24.70;99.90